createdAt,value
2018-06-10T00:01:05.177Z,25.37
2018-06-10T00:03:33.064Z,26.43
2018-06-10T00:06:00.894Z,26.33
2018-06-10T00:08:28.736Z,31.27
2018-06-10T00:10:56.612Z,29.72
2018-06-10T00:13:24.352Z,30.07
2018-06-10T00:15:52.133Z,29.17
2018-06-10T00:18:19.993Z,26.63
2018-06-10T00:20:47.759Z,31.97
2018-06-10T00:23:15.559Z,32.60
2018-06-10T00:25:43.438Z,32.73
2018-06-10T00:28:11.303Z,32.73
2018-06-10T00:30:39.134Z,35.93
2018-06-10T00:33:06.899Z,38.77
2018-06-10T00:35:34.737Z,36.30
2018-06-10T00:38:02.607Z,35.30
2018-06-10T00:40:30.548Z,34.00
2018-06-10T00:42:58.411Z,30.87
2018-06-10T00:45:26.286Z,35.17
2018-06-10T00:47:54.129Z,33.13
2018-06-10T00:50:21.953Z,32.10
2018-06-10T00:52:49.875Z,36.83
2018-06-10T00:55:17.717Z,47.13
2018-06-10T00:57:45.561Z,39.80
2018-06-10T01:00:13.413Z,32.30
2018-06-10T01:02:41.226Z,30.43
2018-06-10T01:05:09.114Z,33.63
2018-06-10T01:07:36.914Z,33.42
2018-06-10T01:10:04.799Z,33.87
2018-06-10T01:12:32.559Z,25.33
2018-06-10T01:15:00.463Z,30.33
2018-06-10T01:17:28.272Z,31.80
2018-06-10T01:19:56.114Z,37.00
2018-06-10T01:22:23.986Z,34.20
2018-06-10T01:24:51.792Z,36.97
2018-06-10T01:27:19.641Z,31.40
2018-06-10T01:29:47.453Z,35.27
2018-06-10T01:32:15.360Z,32.07
2018-06-10T01:34:43.204Z,32.37
2018-06-10T01:37:11.037Z,29.70
2018-06-10T01:39:38.908Z,32.23
2018-06-10T01:42:06.715Z,29.03
2018-06-10T01:44:34.533Z,26.67
2018-06-10T01:47:02.385Z,28.40
2018-06-10T01:49:30.217Z,34.77
2018-06-10T01:51:58.006Z,26.13
2018-06-10T01:54:25.853Z,24.20
2018-06-10T01:56:53.684Z,27.97
2018-06-10T01:59:21.574Z,28.95
2018-06-10T02:01:49.391Z,25.12
2018-06-10T02:04:17.197Z,27.97
2018-06-10T02:06:45.109Z,26.00
2018-06-10T02:09:12.934Z,28.23
2018-06-10T02:11:40.713Z,31.13
2018-06-10T02:14:08.563Z,25.13
2018-06-10T02:16:36.375Z,29.93
2018-06-10T02:19:04.321Z,30.00
2018-06-10T02:21:32.132Z,25.12
2018-06-10T02:23:59.953Z,26.50
2018-06-10T02:26:27.802Z,24.43
2018-06-10T02:28:55.641Z,25.15
2018-06-10T02:31:23.490Z,24.00
2018-06-10T02:33:51.325Z,25.30
2018-06-10T02:36:19.184Z,22.20
2018-06-10T02:38:46.985Z,24.17
2018-06-10T02:41:14.797Z,25.37
2018-06-10T02:43:42.727Z,24.92
2018-06-10T02:46:10.609Z,23.20
2018-06-10T02:48:38.456Z,24.27
2018-06-10T02:51:06.353Z,23.15
2018-06-10T02:53:35.260Z,22.70
2018-06-10T02:56:03.193Z,20.80
2018-06-10T02:58:31.040Z,24.80
2018-06-10T03:00:58.937Z,20.90
2018-06-10T03:03:26.792Z,21.82
2018-06-10T03:05:54.612Z,21.02
2018-06-10T03:08:22.417Z,20.02
2018-06-10T03:10:50.299Z,24.47
2018-06-10T03:13:18.205Z,22.95
2018-06-10T03:15:45.978Z,24.77
2018-06-10T03:18:13.725Z,19.10
2018-06-10T03:20:41.600Z,17.70
2018-06-10T03:23:09.480Z,22.55
2018-06-10T03:25:37.294Z,17.62
2018-06-10T03:28:05.079Z,21.90
2018-06-10T03:30:33.018Z,19.48
2018-06-10T03:33:00.852Z,18.92
2018-06-10T03:35:28.708Z,20.00
2018-06-10T03:37:56.506Z,17.70
2018-06-10T03:40:24.317Z,16.95
2018-06-10T03:42:52.122Z,19.77
2018-06-10T03:45:19.977Z,16.95
2018-06-10T03:47:47.781Z,19.70
2018-06-10T03:50:15.617Z,18.17
2018-06-10T03:52:43.467Z,19.40
2018-06-10T03:55:11.268Z,19.92
2018-06-10T03:57:39.058Z,17.10
2018-06-10T04:00:06.942Z,18.95
2018-06-10T04:02:34.753Z,19.25
2018-06-10T04:05:02.782Z,20.43
2018-06-10T04:07:30.566Z,18.10
2018-06-10T04:09:58.413Z,14.40
2018-06-10T04:12:26.316Z,16.07
2018-06-10T04:14:54.117Z,15.38
2018-06-10T04:17:21.928Z,20.72
2018-06-10T04:19:49.749Z,14.73
2018-06-10T04:22:17.588Z,20.68
2018-06-10T04:24:45.413Z,18.02
2018-06-10T04:27:13.206Z,18.00
2018-06-10T04:29:40.968Z,16.90
2018-06-10T04:32:08.835Z,13.22
2018-06-10T04:34:36.661Z,13.83
2018-06-10T04:37:04.472Z,19.23
2018-06-10T04:39:32.312Z,17.02
2018-06-10T04:42:00.048Z,17.02
2018-06-10T04:44:27.785Z,15.43
2018-06-10T04:46:55.661Z,14.80
2018-06-10T04:49:23.383Z,14.87
2018-06-10T04:51:51.131Z,15.03
2018-06-10T04:54:18.957Z,13.70
2018-06-10T04:56:46.809Z,13.90
2018-06-10T04:59:14.653Z,16.32
2018-06-10T05:01:42.456Z,19.57
2018-06-10T05:04:10.301Z,13.88
2018-06-10T05:06:38.118Z,12.47
2018-06-10T05:09:06.458Z,16.12
2018-06-10T05:11:34.250Z,17.85
2018-06-10T05:14:02.075Z,14.15
2018-06-10T05:16:29.887Z,12.58
2018-06-10T05:18:57.652Z,16.62
2018-06-10T05:21:25.372Z,18.65
2018-06-10T05:23:53.115Z,14.18
2018-06-10T05:26:20.869Z,12.20
2018-06-10T05:28:48.604Z,15.58
2018-06-10T05:31:16.365Z,14.70
2018-06-10T05:33:44.132Z,14.35
2018-06-10T05:36:11.981Z,13.35
2018-06-10T05:38:39.824Z,15.93
2018-06-10T05:41:07.622Z,20.23
2018-06-10T05:43:35.445Z,14.83
2018-06-10T05:46:03.267Z,16.82
2018-06-10T05:48:31.085Z,14.33
2018-06-10T05:50:58.880Z,96.20
2018-06-10T05:53:26.872Z,13.38
2018-06-10T05:55:54.637Z,11.93
2018-06-10T05:58:22.481Z,14.68
2018-06-10T06:00:50.269Z,16.07
2018-06-10T06:03:18.048Z,12.70
2018-06-10T06:05:45.840Z,13.83
2018-06-10T06:08:13.683Z,12.88
2018-06-10T06:10:41.488Z,23.45
2018-06-10T06:13:09.344Z,15.25
2018-06-10T06:15:37.270Z,17.20
2018-06-10T06:18:05.184Z,12.78
2018-06-10T06:20:32.927Z,13.62
2018-06-10T06:23:00.708Z,17.10
2018-06-10T06:25:28.496Z,14.63
2018-06-10T06:27:56.260Z,11.80
2018-06-10T06:30:24.106Z,15.30
2018-06-10T06:32:51.884Z,13.75
2018-06-10T06:35:19.695Z,11.43
2018-06-10T06:37:47.480Z,14.43
2018-06-10T06:40:15.197Z,12.05
2018-06-10T06:42:43.009Z,22.90
2018-06-10T06:45:10.837Z,26.12
2018-06-10T06:47:38.657Z,15.38
2018-06-10T06:50:06.448Z,19.67
2018-06-10T06:52:34.273Z,11.75
2018-06-10T06:55:02.036Z,12.07
2018-06-10T06:57:29.888Z,12.68
2018-06-10T06:59:57.653Z,12.05
2018-06-10T07:02:25.380Z,14.23
2018-06-10T07:04:53.246Z,12.65
2018-06-10T07:07:21.032Z,11.73
2018-06-10T07:09:48.814Z,14.73
2018-06-10T07:12:16.596Z,14.20
2018-06-10T07:14:44.388Z,15.95
2018-06-10T07:17:12.156Z,12.58
2018-06-10T07:19:39.888Z,9.93
2018-06-10T07:22:07.727Z,12.28
2018-06-10T07:24:35.580Z,11.15
2018-06-10T07:27:03.340Z,14.18
2018-06-10T07:29:31.178Z,14.25
2018-06-10T07:31:59.000Z,14.85
2018-06-10T07:34:26.731Z,11.05
2018-06-10T07:36:54.479Z,10.05
2018-06-10T07:39:22.236Z,12.90
2018-06-10T07:41:50.079Z,15.30
2018-06-10T07:44:17.841Z,14.70
2018-06-10T07:46:45.628Z,11.57
2018-06-10T07:49:13.415Z,12.43
2018-06-10T07:51:41.212Z,16.25
2018-06-10T07:54:09.035Z,12.50
2018-06-10T07:56:36.794Z,15.30
2018-06-10T07:59:04.672Z,15.98
2018-06-10T08:01:32.535Z,12.20
2018-06-10T08:04:00.341Z,11.18
2018-06-10T08:06:28.148Z,11.25
2018-06-10T08:08:55.868Z,13.40
2018-06-10T08:11:23.648Z,11.30
2018-06-10T08:13:51.383Z,16.42
2018-06-10T08:16:19.187Z,12.55
2018-06-10T08:18:47.098Z,12.40
2018-06-10T08:21:14.843Z,12.30
2018-06-10T08:23:42.627Z,15.63
2018-06-10T08:26:10.448Z,13.68
2018-06-10T08:28:38.217Z,11.70
2018-06-10T08:31:05.972Z,10.65
2018-06-10T08:33:33.687Z,13.30
2018-06-10T08:36:01.517Z,13.58
2018-06-10T08:38:29.271Z,12.53
2018-06-10T08:40:57.072Z,12.07
2018-06-10T08:43:24.848Z,15.00
2018-06-10T08:45:52.609Z,15.28
2018-06-10T08:48:20.417Z,18.25
2018-06-10T08:50:48.209Z,11.48
2018-06-10T08:53:16.020Z,12.65
2018-06-10T08:55:43.779Z,11.97
2018-06-10T08:58:11.579Z,16.27
2018-06-10T09:00:39.344Z,11.85
2018-06-10T09:03:07.237Z,14.38
2018-06-10T09:05:34.988Z,18.77
2018-06-10T09:08:02.861Z,35.28
2018-06-10T09:10:30.556Z,15.05
2018-06-10T09:12:58.344Z,13.95
2018-06-10T09:15:26.107Z,16.32
2018-06-10T09:17:53.880Z,16.07
2018-06-10T09:20:21.668Z,15.88
2018-06-10T09:22:49.443Z,16.77
2018-06-10T09:25:17.224Z,17.32
2018-06-10T09:27:48.761Z,13.58
2018-06-10T09:30:23.984Z,12.10
2018-06-10T09:32:51.672Z,11.50
2018-06-10T09:35:19.446Z,17.65
2018-06-10T09:37:51.269Z,17.57
2018-06-10T09:40:21.164Z,17.55
2018-06-10T09:43:14.276Z,11.12
2018-06-10T09:45:42.017Z,13.32
2018-06-10T09:48:09.761Z,15.28
2018-06-10T09:50:37.605Z,11.08
2018-06-10T09:53:05.401Z,17.85
2018-06-10T09:55:38.558Z,13.58
2018-06-10T09:58:06.260Z,11.03
2018-06-10T10:00:34.028Z,12.60
2018-06-10T10:03:01.814Z,16.52
2018-06-10T10:05:29.553Z,14.78
2018-06-10T10:07:57.344Z,14.90
2018-06-10T10:10:25.145Z,13.88
2018-06-10T10:12:52.961Z,18.80
2018-06-10T10:15:20.802Z,14.38
2018-06-10T10:17:48.721Z,10.10
2018-06-10T10:20:16.548Z,10.78
2018-06-10T10:22:51.839Z,10.20
2018-06-10T10:25:19.758Z,9.93
2018-06-10T10:27:47.764Z,12.88
2018-06-10T10:30:32.148Z,10.05
2018-06-10T10:33:00.036Z,12.03
2018-06-10T10:35:27.877Z,10.70
2018-06-10T10:50:01.218Z,14.83
2018-06-10T10:52:29.095Z,10.70
2018-06-10T10:54:56.940Z,11.22
2018-06-10T10:57:24.829Z,11.33
2018-06-10T10:59:52.717Z,12.18
2018-06-10T11:02:20.560Z,9.50
2018-06-10T11:04:48.377Z,11.95
2018-06-10T11:07:16.171Z,11.70
2018-06-10T11:09:44.113Z,10.28
2018-06-10T11:12:11.901Z,12.95
2018-06-10T11:14:39.689Z,13.70
2018-06-10T11:17:07.567Z,11.97
2018-06-10T11:19:35.369Z,11.85
2018-06-10T11:22:03.204Z,12.35
2018-06-10T11:27:30.742Z,12.33
2018-06-10T11:29:58.536Z,14.80
2018-06-10T11:32:26.361Z,12.25
2018-06-10T11:34:54.224Z,13.88
2018-06-10T11:37:22.075Z,13.32
2018-06-10T11:39:49.896Z,13.83
2018-06-10T11:42:17.813Z,10.40
2018-06-10T11:44:45.599Z,11.00
2018-06-10T11:47:13.420Z,10.58
2018-06-10T11:49:41.214Z,11.60
2018-06-10T11:52:09.067Z,12.88
2018-06-10T11:54:36.729Z,12.00
2018-06-10T11:57:04.558Z,10.68
2018-06-10T11:59:32.293Z,14.23
2018-06-10T12:02:00.095Z,14.03
2018-06-10T12:04:27.783Z,13.22
2018-06-10T12:06:55.543Z,14.30
2018-06-10T12:09:23.294Z,11.95
2018-06-10T12:11:51.087Z,10.95
2018-06-10T12:14:18.918Z,12.88
2018-06-10T12:16:46.722Z,12.00
2018-06-10T12:19:14.508Z,13.32
2018-06-10T12:21:42.322Z,11.30
2018-06-10T12:24:10.072Z,11.50
2018-06-10T12:26:37.877Z,8.48
2018-06-10T12:29:05.744Z,11.18
2018-06-10T12:31:33.599Z,11.28
2018-06-10T12:34:01.362Z,10.18
2018-06-10T12:36:29.285Z,12.53
2018-06-10T12:38:56.984Z,15.28
2018-06-10T12:41:24.794Z,11.97
2018-06-10T12:43:52.573Z,12.30
2018-06-10T12:46:20.773Z,9.18
2018-06-10T12:48:48.680Z,12.58
2018-06-10T12:51:16.505Z,10.88
2018-06-10T12:53:44.321Z,10.65
2018-06-10T12:56:12.128Z,9.18
2018-06-10T12:58:39.983Z,10.10
2018-06-10T13:01:07.761Z,12.35
2018-06-10T13:03:35.525Z,11.10
2018-06-10T13:06:03.332Z,9.25
2018-06-10T13:08:31.111Z,10.65
2018-06-10T13:10:58.897Z,10.18
2018-06-10T13:13:26.659Z,12.43
2018-06-10T13:15:54.436Z,10.98
2018-06-10T13:18:22.189Z,12.47
2018-06-10T13:20:49.949Z,12.35
2018-06-10T13:23:17.782Z,12.23
2018-06-10T13:25:45.585Z,14.05
2018-06-10T13:28:13.340Z,10.48
2018-06-10T13:30:41.125Z,18.02
2018-06-10T13:33:08.893Z,13.60
2018-06-10T13:35:36.725Z,12.50
2018-06-10T13:38:04.721Z,10.65
2018-06-10T13:40:32.425Z,12.75
2018-06-10T13:43:00.252Z,9.73
2018-06-10T13:45:28.050Z,11.88
2018-06-10T13:47:55.944Z,11.73
2018-06-10T13:50:23.752Z,11.30
2018-06-10T13:52:51.646Z,12.10
2018-06-10T13:55:19.491Z,9.03
2018-06-10T13:57:47.300Z,10.90
2018-06-10T14:00:15.136Z,11.20
2018-06-10T14:02:42.945Z,10.32
2018-06-10T14:05:10.768Z,12.75
2018-06-10T14:07:38.565Z,14.43
2018-06-10T14:10:06.365Z,13.48
2018-06-10T14:12:34.208Z,11.63
2018-06-10T14:15:02.006Z,13.22
2018-06-10T14:17:29.723Z,12.50
2018-06-10T14:19:57.472Z,12.03
2018-06-10T14:22:25.328Z,14.03
2018-06-10T14:24:53.164Z,14.80
2018-06-10T14:27:20.966Z,15.00
2018-06-10T14:29:48.743Z,13.32
2018-06-10T14:32:16.577Z,12.47
2018-06-10T14:34:44.400Z,12.53
2018-06-10T14:37:12.270Z,13.53
2018-06-10T14:39:40.085Z,15.05
2018-06-10T14:42:07.885Z,11.97
2018-06-10T14:44:35.658Z,12.30
2018-06-10T14:47:03.485Z,15.90
2018-06-10T14:49:31.395Z,13.93
2018-06-10T14:51:59.183Z,16.95
2018-06-10T14:54:26.985Z,15.13
2018-06-10T14:56:54.820Z,14.20
2018-06-10T14:59:22.652Z,15.25
2018-06-10T15:01:50.488Z,12.58
2018-06-10T15:04:18.260Z,13.72
2018-06-10T15:07:12.277Z,15.15
2018-06-10T15:09:40.177Z,15.90
2018-06-10T15:12:07.953Z,13.35
2018-06-10T15:14:35.776Z,18.67
2018-06-10T15:17:03.492Z,13.90
2018-06-10T15:19:31.292Z,14.05
2018-06-10T15:21:59.111Z,14.15
2018-06-10T15:24:26.981Z,12.55
2018-06-10T15:26:54.783Z,14.58
2018-06-10T15:29:22.530Z,11.68
2018-06-10T15:31:50.396Z,12.70
2018-06-10T15:34:18.199Z,11.93
2018-06-10T15:36:46.010Z,12.40
2018-06-10T15:39:13.853Z,13.13
2018-06-10T15:41:41.657Z,12.78
2018-06-10T15:44:09.501Z,13.15
2018-06-10T15:46:37.255Z,14.43
2018-06-10T15:49:05.096Z,14.93
2018-06-10T15:51:32.938Z,12.47
2018-06-10T15:54:00.705Z,13.13
2018-06-10T15:56:28.581Z,10.18
2018-06-10T15:58:56.378Z,10.93
2018-06-10T16:01:24.203Z,12.88
2018-06-10T16:03:51.948Z,10.48
2018-06-10T16:09:33.177Z,10.68
2018-06-10T16:15:06.314Z,13.48
2018-06-10T16:23:38.538Z,13.93
2018-06-10T16:26:06.348Z,13.10
2018-06-10T16:28:34.160Z,10.28
2018-06-10T16:31:02.075Z,13.80
2018-06-10T16:36:35.109Z,13.58
2018-06-10T16:39:04.564Z,10.32
2018-06-10T16:41:32.384Z,12.33
2018-06-10T16:44:00.105Z,34.33
2018-06-10T16:46:28.006Z,15.00
2018-06-10T16:48:55.804Z,12.95
2018-06-10T16:51:23.624Z,14.68
2018-06-10T16:53:51.578Z,12.03
2018-06-10T16:56:19.385Z,11.78
2018-06-10T16:58:47.145Z,13.50
2018-06-10T17:01:14.963Z,12.47
2018-06-10T17:03:42.737Z,16.82
2018-06-10T17:06:10.601Z,13.03
2018-06-10T17:08:38.376Z,14.20
2018-06-10T17:11:06.260Z,11.10
2018-06-10T17:13:34.107Z,12.80
2018-06-10T17:16:01.989Z,12.85
2018-06-10T17:18:29.724Z,10.70
2018-06-10T17:20:57.531Z,10.68
2018-06-10T17:23:25.304Z,8.75
2018-06-10T17:25:53.071Z,11.45
2018-06-10T17:28:20.895Z,13.25
2018-06-10T17:30:48.637Z,9.00
2018-06-10T17:33:16.463Z,8.00
2018-06-10T17:35:44.280Z,8.00
2018-06-10T17:38:12.024Z,9.13
2018-06-10T17:40:39.869Z,10.82
2018-06-10T17:43:07.715Z,11.40
2018-06-10T17:45:35.514Z,9.08
2018-06-10T17:48:03.349Z,8.13
2018-06-10T17:50:31.131Z,8.35
2018-06-10T17:52:59.013Z,8.53
2018-06-10T17:55:26.807Z,8.68
2018-06-10T17:57:54.584Z,9.55
2018-06-10T18:00:22.365Z,7.50
2018-06-10T18:02:50.184Z,10.80
2018-06-10T18:05:18.028Z,8.00
2018-06-10T18:07:45.854Z,12.55
2018-06-10T18:10:13.696Z,13.78
2018-06-10T18:12:41.480Z,14.25
2018-06-10T18:15:09.298Z,17.65
2018-06-10T18:17:37.087Z,21.42
2018-06-10T18:20:04.945Z,16.40
2018-06-10T18:22:32.720Z,18.00
2018-06-10T18:25:00.545Z,17.67
2018-06-10T18:27:28.352Z,18.35
2018-06-10T18:29:56.108Z,18.90
2018-06-10T18:32:23.918Z,18.82
2018-06-10T18:34:51.737Z,19.25
2018-06-10T18:37:19.669Z,23.18
2018-06-10T18:39:47.542Z,21.45
2018-06-10T18:42:15.327Z,23.35
2018-06-10T18:44:43.129Z,20.90
2018-06-10T18:47:10.895Z,21.77
2018-06-10T18:49:38.684Z,21.10
2018-06-10T18:52:06.496Z,21.05
2018-06-10T18:54:34.349Z,20.30
2018-06-10T18:57:02.153Z,20.52
2018-06-10T18:59:29.968Z,20.15
2018-06-10T19:01:57.813Z,21.90
2018-06-10T19:04:25.616Z,23.83
2018-06-10T19:06:57.340Z,22.07
2018-06-10T19:09:25.598Z,18.52
2018-06-10T19:11:53.498Z,19.52
2018-06-10T19:14:21.310Z,20.65
2018-06-10T19:16:49.157Z,18.57
2018-06-10T19:19:16.972Z,21.77
2018-06-10T19:21:44.937Z,18.32
2018-06-10T19:24:12.774Z,20.30
2018-06-10T19:26:40.608Z,21.37
2018-06-10T19:29:08.405Z,25.55
2018-06-10T19:31:36.168Z,18.90
2018-06-10T19:34:08.489Z,19.48
2018-06-10T19:36:39.517Z,21.30
2018-06-10T19:39:11.487Z,21.68
2018-06-10T19:41:39.365Z,23.27
2018-06-10T19:44:07.208Z,24.50
2018-06-10T19:49:47.432Z,25.75
2018-06-10T19:52:15.253Z,25.43
2018-06-10T19:54:43.116Z,23.30
2018-06-10T19:57:10.941Z,23.80
2018-06-10T19:59:38.804Z,23.05
2018-06-10T20:02:06.741Z,21.25
2018-06-10T20:04:34.588Z,21.05
2018-06-10T20:07:02.436Z,21.23
2018-06-10T20:09:43.782Z,21.20
2018-06-10T20:12:11.654Z,23.25
2018-06-10T20:14:58.721Z,24.45
2018-06-10T20:20:45.141Z,25.12
2018-06-10T20:23:19.281Z,25.35
2018-06-10T20:25:47.103Z,24.05
2018-06-10T20:28:15.086Z,25.30
2018-06-10T20:30:55.657Z,26.07
2018-06-10T20:33:23.473Z,24.77
2018-06-10T20:35:51.272Z,26.77
2018-06-10T20:38:30.202Z,26.65
2018-06-10T20:44:00.262Z,26.05
2018-06-10T20:46:28.225Z,27.02
2018-06-10T20:48:56.085Z,29.75
2018-06-10T20:51:23.930Z,28.42
2018-06-10T20:53:51.756Z,28.07
2018-06-10T20:56:25.488Z,31.07
2018-06-10T20:58:53.349Z,29.72
2018-06-10T21:01:21.212Z,35.45
2018-06-10T21:03:49.015Z,34.08
2018-06-10T21:06:16.955Z,38.08
2018-06-10T21:08:44.765Z,39.48
2018-06-10T21:11:12.577Z,33.88
2018-06-10T21:14:01.668Z,35.03
2018-06-10T21:16:29.510Z,34.90
2018-06-10T21:18:57.328Z,34.23
2018-06-10T21:21:25.178Z,37.50
2018-06-10T21:23:53.058Z,35.17
2018-06-10T21:26:20.835Z,39.85
2018-06-10T21:28:48.664Z,35.85
2018-06-10T21:31:16.533Z,37.33
2018-06-10T21:33:44.319Z,33.67
2018-06-10T21:36:12.257Z,33.78
2018-06-10T21:38:40.225Z,31.73
2018-06-10T21:41:08.077Z,34.10
2018-06-10T21:43:35.856Z,36.48
2018-06-10T21:49:24.583Z,35.88
2018-06-10T21:51:52.458Z,38.92
2018-06-10T21:54:20.321Z,40.12
2018-06-10T21:56:48.088Z,35.55
2018-06-10T21:59:15.962Z,38.60
2018-06-10T22:01:43.784Z,37.85
2018-06-10T22:04:11.584Z,41.53
2018-06-10T22:06:39.343Z,37.73
2018-06-10T22:09:07.573Z,36.50
2018-06-10T22:11:35.707Z,38.60
2018-06-10T22:14:03.553Z,41.37
2018-06-10T22:16:31.454Z,36.25
2018-06-10T22:19:22.889Z,39.40
2018-06-10T22:21:50.729Z,38.73
2018-06-10T22:24:18.624Z,39.48
2018-06-10T22:26:46.524Z,38.55
2018-06-10T22:29:14.366Z,39.67
2018-06-10T22:31:42.221Z,39.23
2018-06-10T22:34:10.118Z,43.83
2018-06-10T22:36:37.934Z,41.33
2018-06-10T22:39:07.676Z,44.48
2018-06-10T22:41:35.612Z,45.25
2018-06-10T22:44:03.425Z,47.93
2018-06-10T22:46:31.254Z,48.87
2018-06-10T22:48:59.153Z,53.87
2018-06-10T22:51:27.090Z,52.73
2018-06-10T22:54:12.315Z,51.27
2018-06-10T22:56:40.185Z,53.28
2018-06-10T22:59:08.025Z,50.17
2018-06-10T23:01:35.897Z,53.17
2018-06-10T23:04:03.709Z,45.98
2018-06-10T23:06:31.588Z,55.87
2018-06-10T23:08:59.477Z,49.07
2018-06-10T23:11:27.648Z,62.78
2018-06-10T23:13:55.468Z,64.47
2018-06-10T23:16:23.296Z,64.27
2018-06-10T23:18:51.166Z,52.65
2018-06-10T23:21:18.966Z,57.23
2018-06-10T23:23:47.670Z,56.60
2018-06-10T23:26:15.507Z,53.45
2018-06-10T23:28:43.451Z,58.40
2018-06-10T23:31:11.261Z,55.47
2018-06-10T23:33:39.108Z,61.23
2018-06-10T23:36:06.925Z,68.03
2018-06-10T23:38:34.774Z,69.23
2018-06-10T23:41:02.560Z,72.80
2018-06-10T23:43:30.428Z,71.40
2018-06-10T23:45:58.309Z,71.92
2018-06-10T23:48:26.124Z,71.60
2018-06-10T23:50:53.992Z,75.00
2018-06-10T23:53:21.748Z,74.87
2018-06-10T23:55:49.546Z,73.50
2018-06-10T23:58:17.321Z,70.33
